Time;durP1;ratioP1;P1;durP2;ratioP2;P2;SDS_P1;SDS_P2;PMS_P1;PMS_P2;Temp;Humidity;BMP_temperature;BMP_pressure;BME280_temperature;BME280_humidity;BME280_pressure;Samples;Min_cycle;Max_cycle;Signal;HPM_P1;HPM_P2
2022/08/08 00:02:09;;;;;;;0.00;0.00;;;;;;;13.29;84.24;101114.94;5014153;28;20173;-74
2022/08/08 00:04:44;;;;;;;0.00;0.00;;;;;;;13.22;84.68;101100.03;5014201;28;20533;-73
2022/08/08 00:07:48;;;;;;;0.00;0.00;;;;;;;13.11;85.40;101102.19;5012462;28;20182;-73
2022/08/08 00:10:22;;;;;;;0.03;0.03;;;;;;;13.09;86.25;101105.25;4990976;28;20207;-73
2022/08/08 00:13:05;;;;;;;0.00;0.00;;;;;;;13.07;86.14;101110.25;5014092;28;20192;-73
2022/08/08 00:15:36;;;;;;;0.00;0.00;;;;;;;13.12;85.92;101103.81;5013888;28;20208;-73
2022/08/08 00:18:25;;;;;;;0.00;0.00;;;;;;;13.12;86.10;101106.56;5013524;28;20160;-73
2022/08/08 00:20:54;;;;;;;0.00;0.00;;;;;;;13.14;85.99;101111.72;4993912;28;20656;-73
2022/08/08 00:23:29;;;;;;;1.70;1.60;;;;;;;13.15;86.06;101113.34;5013830;28;20511;-73
2022/08/08 00:25:57;;;;;;;0.10;0.10;;;;;;;13.11;86.17;101113.97;5013949;28;20532;-73
2022/08/08 00:28:46;;;;;;;0.20;0.20;;;;;;;13.15;86.75;101107.84;5012250;28;20208;-73
2022/08/08 00:31:18;;;;;;;0.00;0.00;;;;;;;13.20;86.84;101108.59;5011203;28;20200;-73
2022/08/08 00:37:13;;;;;;;0.00;0.00;;;;;;;13.34;86.44;101114.81;5005501;28;20199;-73
2022/08/08 00:39:51;;;;;;;0.10;0.10;;;;;;;13.38;86.33;101112.25;5012736;28;20569;-73
2022/08/08 00:42:48;;;;;;;0.00;0.00;;;;;;;13.38;85.75;101107.56;5011846;28;20172;-73
2022/08/08 00:45:44;;;;;;;0.00;0.00;;;;;;;13.32;86.43;101108.84;4991282;28;20292;-73
2022/08/08 00:48:34;;;;;;;0.00;0.00;;;;;;;13.28;86.31;101099.59;4994322;28;20590;-73
2022/08/08 00:50:59;;;;;;;0.30;0.30;;;;;;;13.22;86.64;101106.34;5008233;28;20695;-73
2022/08/08 00:54:02;;;;;;;0.20;0.20;;;;;;;13.14;86.97;101106.25;5013217;28;20176;-73
2022/08/08 00:56:46;;;;;;;0.00;0.00;;;;;;;13.10;86.33;101112.34;5012930;28;20182;-74
2022/08/08 00:59:38;;;;;;;0.20;0.10;;;;;;;13.00;86.99;101104.38;5012637;28;20200;-73
2022/08/08 01:02:34;;;;;;;0.00;0.00;;;;;;;12.92;87.47;101113.34;5012969;28;20165;-74
2022/08/08 01:05:12;;;;;;;0.00;0.00;;;;;;;12.85;87.48;101115.69;5012888;28;20184;-73
2022/08/08 01:08:03;;;;;;;0.00;0.00;;;;;;;12.78;87.85;101110.66;5044369;28;20191;-73
2022/08/08 01:11:03;;;;;;;0.67;0.67;;;;;;;12.81;88.46;101106.47;5012547;28;20207;-73
2022/08/08 01:14:14;;;;;;;0.00;0.00;;;;;;;12.77;88.85;101108.22;5012716;28;20652;-73
2022/08/08 01:16:50;;;;;;;0.37;0.37;;;;;;;12.64;89.16;101106.34;5012459;28;20165;-74
2022/08/08 01:19:53;;;;;;;0.00;0.00;;;;;;;12.53;89.46;101105.75;5043822;28;20215;-73
2022/08/08 01:22:36;;;;;;;0.10;0.10;;;;;;;12.50;90.45;101103.63;5012736;28;20180;-74
2022/08/08 01:25:21;;;;;;;0.03;0.03;;;;;;;12.50;89.67;101117.34;5044381;28;20559;-73
2022/08/08 01:28:01;;;;;;;0.00;0.00;;;;;;;12.55;89.40;101113.66;5011930;28;20593;-73
2022/08/08 01:31:01;;;;;;;0.00;0.00;;;;;;;12.62;87.86;101117.63;5012017;28;20688;-73
2022/08/08 01:34:03;;;;;;;0.00;0.00;;;;;;;12.61;88.63;101120.66;5012390;28;20176;-74
2022/08/08 01:36:47;;;;;;;0.00;0.00;;;;;;;12.51;89.05;101121.69;5004319;28;20230;-74
2022/08/08 01:39:48;;;;;;;0.47;0.47;;;;;;;12.43;90.06;101120.47;5011935;28;20242;-74
2022/08/08 01:42:32;;;;;;;0.00;0.00;;;;;;;12.37;90.16;101126.38;5012103;28;20179;-74
2022/08/08 01:45:33;;;;;;;0.20;0.20;;;;;;;12.25;90.74;101120.59;5012223;28;20621;-74
2022/08/08 01:48:17;;;;;;;0.20;0.20;;;;;;;12.23;91.53;101120.09;5011863;28;20534;-73
2022/08/08 01:51:03;;;;;;;0.00;0.00;;;;;;;12.18;92.39;101124.59;5012367;28;20168;-73
2022/08/08 01:53:43;;;;;;;0.00;0.00;;;;;;;12.12;92.46;101120.31;5012137;28;20192;-74
2022/08/08 01:56:23;;;;;;;0.00;0.00;;;;;;;12.10;93.08;101116.25;5012234;28;20183;-73
2022/08/08 01:58:57;;;;;;;0.00;0.00;;;;;;;12.13;93.35;101113.72;5011355;28;20299;-74
2022/08/08 02:02:00;;;;;;;0.00;0.00;;;;;;;12.01;93.36;101124.38;5011835;28;20172;-74
2022/08/08 02:04:36;;;;;;;0.00;0.00;;;;;;;11.94;94.32;101121.22;5011695;28;20648;-73
2022/08/08 02:07:29;;;;;;;0.20;0.20;;;;;;;12.00;93.87;101120.00;5011448;28;20178;-73
2022/08/08 02:10:31;;;;;;;0.00;0.00;;;;;;;11.95;94.94;101120.09;5010720;28;20231;-74
2022/08/08 02:13:03;;;;;;;0.10;0.10;;;;;;;11.93;94.51;101116.06;5010364;28;20664;-74
2022/08/08 02:15:39;;;;;;;0.00;0.00;;;;;;;11.87;95.32;101120.84;5011619;28;20169;-74
2022/08/08 02:18:35;;;;;;;0.00;0.00;;;;;;;11.94;96.07;101117.69;5011045;28;20164;-74
2022/08/08 02:24:18;;;;;;;3.20;0.80;;;;;;;11.85;97.02;101132.06;5011583;28;20167;-73
2022/08/08 02:27:11;;;;;;;0.03;0.03;;;;;;;11.89;97.70;101137.75;5011023;28;20669;-74
2022/08/08 02:30:01;;;;;;;0.40;0.40;;;;;;;11.81;97.49;101131.06;5010996;28;20184;-74
2022/08/08 02:32:52;;;;;;;0.00;0.00;;;;;;;11.70;98.51;101128.75;5011400;28;20164;-74
2022/08/08 02:35:17;;;;;;;0.00;0.00;;;;;;;11.71;98.52;101128.47;5011318;28;20261;-74
2022/08/08 02:38:21;;;;;;;0.00;0.00;;;;;;;11.79;99.14;101127.81;5009835;28;20699;-73
2022/08/08 02:41:23;;;;;;;4.23;1.80;;;;;;;11.81;98.30;101125.56;5010430;28;20189;-74
2022/08/08 02:44:16;;;;;;;0.70;0.70;;;;;;;11.75;98.83;101137.72;5008858;28;20168;-74
2022/08/08 02:46:54;;;;;;;0.00;0.00;;;;;;;11.71;99.08;101138.59;5011120;28;20173;-73
2022/08/08 02:49:43;;;;;;;0.00;0.00;;;;;;;11.73;99.19;101136.41;5010715;28;20656;-73
2022/08/08 02:52:24;;;;;;;0.00;0.00;;;;;;;11.62;99.19;101141.25;5011446;28;20176;-73
2022/08/08 02:55:17;;;;;;;0.63;0.63;;;;;;;11.53;100.00;101146.56;5043110;28;20644;-74
2022/08/08 02:58:02;;;;;;;0.10;0.10;;;;;;;11.56;100.00;101145.16;5010740;28;20471;-74
2022/08/08 03:00:49;;;;;;;0.00;0.00;;;;;;;11.65;100.00;101153.50;4990914;28;20176;-74
2022/08/08 03:03:36;;;;;;;0.50;0.50;;;;;;;11.62;100.00;101152.19;4991441;28;20192;-74
2022/08/08 03:06:27;;;;;;;0.37;0.20;;;;;;;11.61;100.00;101150.56;4991632;28;20164;-74
2022/08/08 03:09:29;;;;;;;0.00;0.00;;;;;;;11.58;100.00;101151.16;4990734;28;20181;-73
2022/08/08 03:12:19;;;;;;;0.00;0.00;;;;;;;11.58;100.00;101154.72;4991219;28;20181;-73
2022/08/08 03:15:01;;;;;;;0.00;0.00;;;;;;;11.59;100.00;101152.78;4991397;28;20379;-73
2022/08/08 03:17:38;;;;;;;0.37;0.37;;;;;;;11.58;100.00;101151.97;4989800;28;20170;-74
2022/08/08 03:20:07;;;;;;;1.07;0.97;;;;;;;11.55;100.00;101146.28;4990838;28;20197;-73
2022/08/08 03:22:43;;;;;;;0.93;0.93;;;;;;;11.58;100.00;101148.44;4994743;28;20244;-73
2022/08/08 03:25:08;;;;;;;0.00;0.00;;;;;;;11.61;100.00;101147.81;4995109;28;20168;-74
2022/08/08 03:27:38;;;;;;;0.87;0.87;;;;;;;11.63;100.00;101145.59;4995004;28;20553;-74
2022/08/08 03:30:10;;;;;;;0.23;0.23;;;;;;;11.62;100.00;101143.97;4994707;28;20251;-73
2022/08/08 03:35:21;;;;;;;0.00;0.00;;;;;;;11.53;100.00;101157.53;5007552;28;20580;-74
2022/08/08 03:37:47;;;;;;;0.00;0.00;;;;;;;11.51;100.00;101154.28;5014288;28;20226;-74
2022/08/08 03:40:12;;;;;;;0.00;0.00;;;;;;;11.58;100.00;101157.47;5014304;28;20335;-74
2022/08/08 03:42:38;;;;;;;0.20;0.20;;;;;;;11.62;100.00;101157.66;5046282;28;20201;-74
2022/08/08 03:45:13;;;;;;;0.00;0.00;;;;;;;11.58;100.00;101162.13;5014469;28;20203;-73
2022/08/08 03:47:39;;;;;;;0.43;0.43;;;;;;;11.62;100.00;101171.34;5014054;28;20180;-74
2022/08/08 03:50:14;;;;;;;0.10;0.10;;;;;;;11.65;100.00;101169.94;5013877;28;20235;-74
2022/08/08 03:52:39;;;;;;;0.10;0.10;;;;;;;11.62;100.00;101166.69;5046282;28;20571;-74
2022/08/08 03:55:12;;;;;;;0.00;0.00;;;;;;;11.65;100.00;101173.47;5014681;28;20264;-74
2022/08/08 03:57:42;;;;;;;0.30;0.30;;;;;;;11.64;100.00;101174.59;5014022;28;20215;-73
2022/08/08 04:00:10;;;;;;;0.60;0.60;;;;;;;11.52;100.00;101176.97;5013815;28;20197;-73
2022/08/08 04:02:35;;;;;;;0.00;0.00;;;;;;;11.39;100.00;101184.03;5014177;28;20640;-73
2022/08/08 04:05:04;;;;;;;0.10;0.10;;;;;;;11.39;100.00;101188.69;5014052;28;20215;-74
2022/08/08 04:07:39;;;;;;;0.00;0.00;;;;;;;11.40;100.00;101187.59;5013870;28;20204;-74
2022/08/08 04:10:07;;;;;;;1.53;0.70;;;;;;;11.40;100.00;101191.13;5013768;28;20200;-74
2022/08/08 04:12:33;;;;;;;0.00;0.00;;;;;;;11.43;100.00;101197.91;5029122;28;20603;-73
2022/08/08 04:14:59;;;;;;;0.30;0.30;;;;;;;11.43;100.00;101190.56;5014045;28;20319;-74
2022/08/08 04:17:24;;;;;;;0.73;0.73;;;;;;;11.38;100.00;101196.09;5013595;28;20266;-74
2022/08/08 04:19:49;;;;;;;0.60;0.60;;;;;;;11.39;100.00;101194.16;5013355;28;20204;-74
2022/08/08 04:22:15;;;;;;;0.00;0.00;;;;;;;11.41;100.00;101192.75;5014117;28;20653;-74
2022/08/08 04:24:40;;;;;;;0.83;0.83;;;;;;;11.41;100.00;101197.41;5013944;28;20203;-74
2022/08/08 04:27:06;;;;;;;0.03;0.03;;;;;;;11.44;100.00;101205.84;5012931;28;20189;-73
2022/08/08 04:29:31;;;;;;;0.00;0.00;;;;;;;11.42;100.00;101210.78;5013241;28;20267;-73
2022/08/08 04:31:56;;;;;;;0.67;0.67;;;;;;;11.46;100.00;101208.28;5013579;28;20173;-74
2022/08/08 04:34:22;;;;;;;0.00;0.00;;;;;;;11.49;100.00;101213.16;5013963;28;20188;-75
2022/08/08 04:36:47;;;;;;;0.10;0.10;;;;;;;11.52;100.00;101216.09;5019169;28;20181;-74
2022/08/08 04:39:13;;;;;;;0.20;0.20;;;;;;;11.53;100.00;101209.53;5013341;28;20208;-71
2022/08/08 04:41:38;;;;;;;0.00;0.00;;;;;;;11.60;100.00;101220.09;5013887;28;20284;-74
2022/08/08 04:44:03;;;;;;;0.60;0.60;;;;;;;11.67;100.00;101212.31;5013810;28;20187;-74
2022/08/08 04:46:29;;;;;;;0.00;0.00;;;;;;;11.79;100.00;101212.69;5013642;28;20179;-73
2022/08/08 04:48:54;;;;;;;0.00;0.00;;;;;;;11.85;100.00;101216.94;5013447;28;20181;-72
2022/08/08 04:51:19;;;;;;;0.00;0.00;;;;;;;11.91;100.00;101221.22;5013609;28;20259;-74
2022/08/08 04:53:45;;;;;;;0.00;0.00;;;;;;;12.00;100.00;101215.03;5012286;28;20223;-72
2022/08/08 04:56:11;;;;;;;0.00;0.00;;;;;;;12.08;100.00;101228.06;5012133;28;20230;-72
2022/08/08 04:58:36;;;;;;;0.00;0.00;;;;;;;12.20;100.00;101231.13;5012533;28;20201;-72
2022/08/08 05:01:02;;;;;;;0.87;0.83;;;;;;;12.23;100.00;101232.44;5013353;28;20642;-73
2022/08/08 05:03:27;;;;;;;0.10;0.10;;;;;;;12.28;100.00;101235.06;5013228;28;20663;-74
2022/08/08 05:05:53;;;;;;;0.00;0.00;;;;;;;12.36;100.00;101237.94;5013404;28;20180;-73
2022/08/08 05:08:18;;;;;;;0.33;0.17;;;;;;;12.44;100.00;101236.38;5012256;28;20188;-73
2022/08/08 05:10:44;;;;;;;0.50;0.50;;;;;;;12.50;100.00;101237.94;5013059;28;20264;-73
2022/08/08 05:13:09;;;;;;;0.30;0.27;;;;;;;12.61;100.00;101250.31;5012853;28;20272;-73
2022/08/08 05:15:34;;;;;;;0.30;0.30;;;;;;;12.68;99.07;101250.72;5012782;28;20176;-74
2022/08/08 05:18:00;;;;;;;0.50;0.50;;;;;;;12.75;97.38;101248.38;4999262;28;20645;-73
2022/08/08 05:20:25;;;;;;;0.83;0.83;;;;;;;12.82;95.85;101254.25;4992905;28;20185;-73
2022/08/08 05:22:50;;;;;;;0.07;0.07;;;;;;;12.88;94.88;101249.50;4993675;28;20535;-73
2022/08/08 05:25:16;;;;;;;0.67;0.67;;;;;;;12.93;94.20;101251.31;4992985;28;20188;-74
2022/08/08 05:27:42;;;;;;;0.20;0.20;;;;;;;12.95;93.60;101252.63;4992960;28;20196;-73
2022/08/08 05:30:09;;;;;;;0.30;0.30;;;;;;;12.99;93.13;101259.09;4991860;28;20196;-74
2022/08/08 05:32:37;;;;;;;0.80;0.77;;;;;;;13.05;92.98;101249.66;4993006;28;20648;-74
2022/08/08 05:35:04;;;;;;;0.37;0.37;;;;;;;13.07;92.01;101257.56;4999383;28;20187;-75
2022/08/08 05:37:31;;;;;;;0.00;0.00;;;;;;;13.11;91.20;101255.84;5012084;28;20459;-75
2022/08/08 05:40:00;;;;;;;0.07;0.07;;;;;;;13.20;90.87;101256.75;5011943;28;20201;-75
2022/08/08 05:42:39;;;;;;;1.50;1.40;;;;;;;13.29;89.98;101262.31;5012277;28;20177;-74
2022/08/08 05:45:05;;;;;;;1.03;1.03;;;;;;;13.32;89.57;101259.78;5026492;28;20810;-74
2022/08/08 05:47:31;;;;;;;0.57;0.57;;;;;;;13.43;89.09;101256.78;5011903;28;20172;-75
2022/08/08 05:49:57;;;;;;;1.23;1.23;;;;;;;13.52;88.49;101260.41;5011701;28;20185;-75
2022/08/08 05:52:23;;;;;;;0.00;0.00;;;;;;;13.57;88.78;101258.34;5012228;28;20180;-74
2022/08/08 05:54:48;;;;;;;0.50;0.50;;;;;;;13.64;88.10;101261.50;5010770;28;20676;-76
2022/08/08 05:57:16;;;;;;;0.77;0.77;;;;;;;13.69;87.19;101257.78;5011683;28;20176;-75
2022/08/08 05:59:47;;;;;;;0.00;0.00;;;;;;;13.73;87.71;101272.53;5026130;28;20278;-75
2022/08/08 06:05:04;;;;;;;0.10;0.10;;;;;;;13.86;87.23;101277.13;5012109;28;20175;-75
2022/08/08 06:07:31;;;;;;;0.37;0.37;;;;;;;13.95;86.84;101272.53;5011804;28;20177;-75
2022/08/08 06:10:00;;;;;;;0.00;0.00;;;;;;;14.01;86.43;101278.69;5011638;28;20504;-74
2022/08/08 06:12:26;;;;;;;0.30;0.30;;;;;;;14.14;85.76;101277.00;5011713;28;20211;-75
2022/08/08 06:14:52;;;;;;;0.50;0.50;;;;;;;14.23;85.09;101275.91;5011354;28;20180;-75
2022/08/08 06:17:20;;;;;;;0.07;0.07;;;;;;;14.30;83.13;101270.75;5010082;28;20647;-74
2022/08/08 06:19:47;;;;;;;1.67;0.37;;;;;;;14.35;81.89;101280.84;5011305;28;20216;-75
2022/08/08 06:22:12;;;;;;;0.00;0.00;;;;;;;14.43;82.01;101273.75;5011914;28;20181;-75
2022/08/08 06:24:37;;;;;;;0.37;0.37;;;;;;;14.50;81.88;101293.38;5011490;28;20179;-75
2022/08/08 06:27:05;;;;;;;0.00;0.00;;;;;;;14.57;81.93;101286.28;5009650;28;20615;-75
2022/08/08 06:29:41;;;;;;;0.00;0.00;;;;;;;14.69;82.42;101288.44;5009766;28;20176;-75
2022/08/08 06:32:13;;;;;;;0.10;0.10;;;;;;;14.80;82.45;101287.03;5008440;28;20517;-76
2022/08/08 06:34:41;;;;;;;0.07;0.07;;;;;;;14.91;81.56;101281.25;5011349;28;20184;-74
2022/08/08 06:37:12;;;;;;;0.00;0.00;;;;;;;15.03;81.54;101293.22;5010872;28;20552;-75
2022/08/08 06:39:43;;;;;;;0.27;0.27;;;;;;;15.12;80.23;101298.75;5011400;28;20192;-75
2022/08/08 06:42:11;;;;;;;0.10;0.10;;;;;;;15.20;80.39;101294.41;5011414;28;20199;-74
2022/08/08 06:44:39;;;;;;;0.00;0.00;;;;;;;15.30;80.87;101307.84;5009874;28;20225;-74
2022/08/08 06:47:05;;;;;;;0.63;0.60;;;;;;;15.35;79.40;101305.78;5016114;28;20635;-74
2022/08/08 06:49:31;;;;;;;0.87;0.87;;;;;;;15.36;78.94;101301.88;5028468;28;20245;-75
2022/08/08 06:51:58;;;;;;;1.10;1.10;;;;;;;15.39;79.29;101306.72;5014913;28;20181;-72
2022/08/08 06:54:24;;;;;;;0.20;0.20;;;;;;;15.47;80.00;101311.41;5011323;28;20252;-75
2022/08/08 06:56:50;;;;;;;0.40;0.40;;;;;;;15.55;79.63;101318.09;5010213;28;20176;-75
2022/08/08 06:59:16;;;;;;;0.40;0.40;;;;;;;15.57;78.01;101304.78;5009168;28;20291;-75
2022/08/08 07:01:51;;;;;;;0.77;0.77;;;;;;;15.58;78.24;101309.16;5011055;28;20720;-74
2022/08/08 07:04:24;;;;;;;0.80;0.80;;;;;;;15.61;77.72;101319.56;5009650;28;20176;-75
2022/08/08 07:06:59;;;;;;;0.10;0.10;;;;;;;15.69;78.01;101320.72;5009264;28;20603;-75
2022/08/08 07:09:32;;;;;;;0.53;0.53;;;;;;;15.76;78.95;101326.53;5010647;28;20242;-74
2022/08/08 07:11:58;;;;;;;1.57;1.47;;;;;;;15.88;79.18;101326.69;5009583;28;20582;-75
2022/08/08 07:14:57;;;;;;;0.30;0.30;;;;;;;15.97;78.68;101333.00;5006924;28;20189;-74
2022/08/08 07:17:24;;;;;;;0.17;0.17;;;;;;;16.11;78.35;101332.03;5038917;28;20184;-75
2022/08/08 07:20:03;;;;;;;0.00;0.00;;;;;;;16.22;76.65;101333.31;5010367;28;20208;-75
2022/08/08 07:22:48;;;;;;;0.33;0.33;;;;;;;16.37;76.20;101330.03;5010769;28;20208;-75
2022/08/08 07:25:14;;;;;;;0.00;0.00;;;;;;;16.46;75.79;101332.75;5010987;28;20173;-74
2022/08/08 07:27:44;;;;;;;0.00;0.00;;;;;;;16.54;75.78;101329.16;5010669;28;20181;-75
2022/08/08 07:30:11;;;;;;;0.00;0.00;;;;;;;16.64;75.75;101332.38;5009233;28;20180;-75
2022/08/08 07:32:38;;;;;;;0.77;0.77;;;;;;;16.77;76.18;101333.31;5010785;28;20177;-75
2022/08/08 07:35:05;;;;;;;0.83;0.83;;;;;;;16.92;76.34;101332.78;5010621;28;20181;-75
2022/08/08 07:37:31;;;;;;;0.00;0.00;;;;;;;17.02;74.71;101337.09;5009699;28;20700;-74
2022/08/08 07:39:57;;;;;;;0.00;0.00;;;;;;;17.12;74.24;101344.19;5010327;28;20600;-75
2022/08/08 07:42:24;;;;;;;0.00;0.00;;;;;;;17.23;71.54;101342.69;5010716;28;20184;-75
2022/08/08 07:44:49;;;;;;;0.00;0.00;;;;;;;17.33;71.74;101347.78;5010525;28;20173;-75
2022/08/08 07:47:15;;;;;;;0.00;0.00;;;;;;;17.47;72.11;101344.78;5010431;28;20184;-75
2022/08/08 07:49:40;;;;;;;0.40;0.40;;;;;;;17.55;71.89;101347.50;5010271;28;20307;-75
2022/08/08 07:52:09;;;;;;;0.03;0.03;;;;;;;17.67;70.66;101346.75;5010675;28;20176;-75
2022/08/08 07:54:50;;;;;;;0.00;0.00;;;;;;;17.74;70.43;101357.28;5010534;28;20181;-74
2022/08/08 07:57:26;;;;;;;2.37;0.57;;;;;;;17.82;69.34;101348.13;5010338;28;20298;-74
2022/08/08 08:00:24;;;;;;;5.93;4.73;;;;;;;17.89;68.40;101364.16;5010222;28;20562;-74
2022/08/08 08:02:59;;;;;;;0.20;0.20;;;;;;;17.97;68.73;101363.28;5010084;28;20168;-74
2022/08/08 08:05:27;;;;;;;0.20;0.20;;;;;;;18.12;69.28;101365.44;5010426;28;20177;-74
2022/08/08 08:07:55;;;;;;;0.40;0.37;;;;;;;18.20;67.41;101358.19;5011101;28;20172;-75
2022/08/08 08:10:23;;;;;;;0.60;0.60;;;;;;;18.30;66.84;101364.09;5013580;28;20185;-74
2022/08/08 08:12:56;;;;;;;0.77;0.77;;;;;;;18.50;65.37;101370.72;5012423;28;20279;-74
2022/08/08 08:15:25;;;;;;;0.00;0.00;;;;;;;18.58;65.66;101363.47;5013721;28;20176;-75
2022/08/08 08:17:57;;;;;;;0.47;0.43;;;;;;;18.66;64.39;101362.59;5013663;28;20184;-73
2022/08/08 08:20:28;;;;;;;0.40;0.40;;;;;;;18.71;63.33;101370.69;5028525;28;20587;-74
2022/08/08 08:22:53;;;;;;;0.20;0.20;;;;;;;18.77;63.52;101374.84;5014087;28;20183;-73
2022/08/08 08:25:19;;;;;;;0.00;0.00;;;;;;;18.89;63.30;101368.50;5013689;28;20176;-74
2022/08/08 08:27:44;;;;;;;0.00;0.00;;;;;;;18.92;63.05;101371.41;5013499;28;20192;-74
2022/08/08 08:30:10;;;;;;;0.20;0.20;;;;;;;19.07;63.45;101377.41;5012126;28;20271;-73
2022/08/08 08:32:36;;;;;;;0.00;0.00;;;;;;;19.23;62.27;101370.00;5011927;28;20180;-75
2022/08/08 08:35:03;;;;;;;1.00;0.70;;;;;;;19.46;63.10;101376.69;5010421;28;20177;-75
2022/08/08 08:37:29;;;;;;;0.00;0.00;;;;;;;19.47;63.24;101369.19;5013630;28;20234;-75
2022/08/08 08:39:54;;;;;;;0.20;0.20;;;;;;;19.59;61.50;101369.19;5013085;28;20714;-73
2022/08/08 08:42:20;;;;;;;0.00;0.00;;;;;;;19.67;60.98;101364.66;5013492;28;20660;-73
2022/08/08 08:44:47;;;;;;;0.27;0.27;;;;;;;19.60;60.27;101368.03;5012203;28;20645;-73
2022/08/08 08:47:14;;;;;;;0.00;0.00;;;;;;;19.61;60.22;101367.69;5011570;28;20577;-72
2022/08/08 08:49:39;;;;;;;0.00;0.00;;;;;;;19.74;60.21;101370.44;5010011;28;20182;-73
2022/08/08 08:52:06;;;;;;;0.00;0.00;;;;;;;19.74;59.17;101376.78;5012182;28;20676;-72
2022/08/08 08:54:33;;;;;;;0.00;0.00;;;;;;;19.77;59.78;101380.81;5011960;28;20660;-73
2022/08/08 08:57:00;;;;;;;0.00;0.00;;;;;;;19.77;58.50;101376.06;5012983;28;20176;-73
2022/08/08 08:59:29;;;;;;;0.00;0.00;;;;;;;19.89;59.94;101378.81;5012675;28;20196;-74
2022/08/08 09:01:57;;;;;;;0.00;0.00;;;;;;;20.17;59.65;101375.25;5013068;28;20252;-73
2022/08/08 09:04:24;;;;;;;0.00;0.00;;;;;;;20.30;58.40;101376.81;5013036;28;20170;-73
2022/08/08 09:06:52;;;;;;;0.97;0.97;;;;;;;20.52;58.04;101369.06;5011569;28;20181;-73
2022/08/08 09:09:24;;;;;;;0.30;0.20;;;;;;;20.41;58.05;101372.41;5012570;28;20182;-74
2022/08/08 09:11:52;;;;;;;0.00;0.00;;;;;;;20.44;57.62;101368.09;5012976;28;20181;-74
2022/08/08 09:14:21;;;;;;;0.00;0.00;;;;;;;20.52;57.66;101364.31;5011167;28;20659;-73
2022/08/08 09:16:47;;;;;;;0.00;0.00;;;;;;;20.73;56.61;101370.44;5012495;28;20177;-73
2022/08/08 09:19:13;;;;;;;0.10;0.10;;;;;;;20.79;55.37;101362.66;5011864;28;20284;-73
2022/08/08 09:21:40;;;;;;;0.00;0.00;;;;;;;20.85;54.83;101363.22;5013014;28;20640;-73
2022/08/08 09:24:06;;;;;;;0.00;0.00;;;;;;;20.81;54.42;101371.44;5012568;28;20177;-74
2022/08/08 09:27:11;;;;;;;0.00;0.00;;;;;;;20.88;55.02;101366.06;5012591;28;20185;-71
2022/08/08 09:29:45;;;;;;;0.00;0.00;;;;;;;21.01;54.81;101364.00;5012202;28;20157;-73
2022/08/08 09:32:30;;;;;;;0.00;0.00;;;;;;;21.12;54.91;101369.78;5011215;28;20177;-74
2022/08/08 09:34:59;;;;;;;0.00;0.00;;;;;;;21.20;52.79;101377.94;5012448;28;20193;-73
2022/08/08 09:37:28;;;;;;;0.00;0.00;;;;;;;21.23;52.39;101370.84;5012248;28;20175;-73
2022/08/08 09:39:59;;;;;;;0.00;0.00;;;;;;;21.38;52.92;101368.06;5011567;28;20202;-73
2022/08/08 09:42:32;;;;;;;0.00;0.00;;;;;;;21.55;51.21;101366.06;5012385;28;20580;-73
2022/08/08 09:45:05;;;;;;;0.00;0.00;;;;;;;21.80;52.13;101366.59;5012185;28;20259;-73
2022/08/08 09:47:33;;;;;;;0.00;0.00;;;;;;;21.83;50.73;101369.47;5011975;28;20201;-73
2022/08/08 09:49:58;;;;;;;0.00;0.00;;;;;;;21.79;50.81;101360.25;5011755;28;20228;-72
2022/08/08 09:52:29;;;;;;;0.27;0.27;;;;;;;21.92;50.58;101369.25;5012107;28;20197;-73
2022/08/08 09:54:55;;;;;;;0.77;0.77;;;;;;;21.98;49.75;101367.78;5011863;28;20285;-73
2022/08/08 09:57:32;;;;;;;0.40;0.40;;;;;;;21.90;49.23;101366.03;5012009;28;20643;-73
2022/08/08 09:59:59;;;;;;;0.10;0.10;;;;;;;22.04;49.52;101365.53;5011473;28;20291;-73
2022/08/08 10:02:32;;;;;;;0.30;0.30;;;;;;;22.27;50.13;101358.03;5011863;28;20179;-73
2022/08/08 10:05:15;;;;;;;0.00;0.00;;;;;;;22.24;48.65;101356.00;5011865;28;20690;-74
2022/08/08 10:07:58;;;;;;;0.00;0.00;;;;;;;22.33;49.25;101364.94;5011808;28;20169;-74
2022/08/08 10:10:28;;;;;;;0.00;0.00;;;;;;;22.38;49.62;101358.25;5011489;28;20676;-78
2022/08/08 10:12:54;;;;;;;0.00;0.00;;;;;;;22.53;48.89;101355.34;5011781;28;20536;-73
2022/08/08 10:15:24;;;;;;;0.00;0.00;;;;;;;22.68;49.07;101358.41;5011541;28;20179;-73
2022/08/08 10:17:51;;;;;;;0.00;0.00;;;;;;;22.70;47.30;101353.25;5011528;28;20243;-73
2022/08/08 10:20:17;;;;;;;0.10;0.00;;;;;;;22.63;47.18;101362.31;5011121;28;20216;-73
2022/08/08 10:22:58;;;;;;;0.30;0.30;;;;;;;22.50;47.81;101363.66;5011626;28;20174;-73
2022/08/08 10:25:24;;;;;;;0.10;0.10;;;;;;;22.52;47.31;101353.75;5009832;28;20645;-73
2022/08/08 10:27:52;;;;;;;0.00;0.00;;;;;;;22.65;46.25;101354.38;5009885;28;20277;-73
2022/08/08 10:30:18;;;;;;;0.00;0.00;;;;;;;22.74;45.06;101357.72;5008584;28;20192;-73
2022/08/08 10:32:56;;;;;;;0.20;0.20;;;;;;;22.89;45.81;101355.22;5011109;28;20182;-74
2022/08/08 10:35:24;;;;;;;0.17;0.17;;;;;;;23.00;45.33;101348.63;5011239;28;20229;-73
2022/08/08 10:37:53;;;;;;;0.00;0.00;;;;;;;23.20;45.86;101348.53;5010612;28;20247;-74
2022/08/08 10:40:19;;;;;;;0.50;0.50;;;;;;;23.27;44.78;101355.00;5010246;28;20254;-73
2022/08/08 10:42:48;;;;;;;0.17;0.17;;;;;;;23.22;44.46;101340.59;5010942;28;20175;-75
2022/08/08 10:45:14;;;;;;;0.70;0.70;;;;;;;23.28;45.08;101347.44;5010921;28;20200;-74
2022/08/08 10:47:41;;;;;;;0.47;0.47;;;;;;;23.44;44.65;101348.09;5010913;28;20229;-74
2022/08/08 10:50:07;;;;;;;0.20;0.20;;;;;;;23.58;45.83;101348.31;5010904;28;20188;-75
2022/08/08 10:52:33;;;;;;;1.17;0.80;;;;;;;23.57;44.67;101346.69;5011003;28;20173;-74
2022/08/08 10:55:03;;;;;;;0.87;0.87;;;;;;;23.17;42.79;101344.50;5010965;28;20204;-75
2022/08/08 10:57:30;;;;;;;0.00;0.00;;;;;;;23.25;44.54;101340.63;5010517;28;20184;-76
2022/08/08 10:59:58;;;;;;;0.00;0.00;;;;;;;23.26;43.25;101341.44;5008687;28;20304;-75
2022/08/08 11:02:29;;;;;;;0.10;0.10;;;;;;;23.48;43.42;101342.56;5009079;28;20183;-75
2022/08/08 11:05:08;;;;;;;0.00;0.00;;;;;;;23.61;43.16;101342.00;5009474;28;20198;-75
2022/08/08 11:07:37;;;;;;;0.00;0.00;;;;;;;23.43;42.45;101340.88;5002207;28;20706;-75
2022/08/08 11:10:03;;;;;;;0.20;0.20;;;;;;;23.63;43.47;101336.03;4990805;28;20167;-75
2022/08/08 11:12:32;;;;;;;0.00;0.00;;;;;;;23.74;43.71;101334.97;5004482;28;20682;-76
2022/08/08 11:15:00;;;;;;;0.00;0.00;;;;;;;23.99;44.33;101337.25;5007238;28;20221;-76
2022/08/08 11:17:28;;;;;;;0.03;0.03;;;;;;;24.00;43.03;101336.88;5005118;28;20212;-73
2022/08/08 11:19:53;;;;;;;0.17;0.17;;;;;;;24.14;43.46;101344.59;5010104;28;20679;-75
2022/08/08 11:22:25;;;;;;;0.00;0.00;;;;;;;24.07;42.41;101341.75;5010708;28;20187;-75
2022/08/08 11:24:53;;;;;;;0.10;0.10;;;;;;;24.05;41.86;101335.75;5011337;28;20172;-72
2022/08/08 11:27:22;;;;;;;0.00;0.00;;;;;;;23.97;41.71;101346.00;5013765;28;20188;-72
2022/08/08 11:29:48;;;;;;;0.00;0.00;;;;;;;23.91;41.22;101347.53;5014440;28;20184;-72
2022/08/08 11:32:16;;;;;;;0.00;0.00;;;;;;;23.96;41.82;101346.41;5008835;28;20187;-73
2022/08/08 11:34:44;;;;;;;0.00;0.00;;;;;;;23.73;41.62;101333.38;5011194;28;20226;-72
2022/08/08 11:37:10;;;;;;;0.00;0.00;;;;;;;23.74;40.66;101328.59;5011357;28;20625;-72
2022/08/08 11:39:36;;;;;;;0.10;0.10;;;;;;;24.09;41.86;101335.78;5011042;28;20212;-72
2022/08/08 11:42:02;;;;;;;0.47;0.47;;;;;;;24.32;40.97;101340.06;5011192;28;20181;-72
2022/08/08 11:44:30;;;;;;;0.03;0.03;;;;;;;24.46;42.38;101335.81;5014069;28;20678;-72
2022/08/08 11:46:56;;;;;;;0.33;0.33;;;;;;;24.39;39.97;101335.72;5014209;28;20655;-72
2022/08/08 11:49:23;;;;;;;0.00;0.00;;;;;;;24.43;42.26;101323.38;5013992;28;20172;-72
2022/08/08 11:51:51;;;;;;;0.43;0.43;;;;;;;24.47;41.16;101326.25;5014391;28;20177;-72
2022/08/08 11:54:16;;;;;;;0.00;0.00;;;;;;;24.46;41.08;101327.44;5014418;28;20699;-72
2022/08/08 11:56:42;;;;;;;0.13;0.13;;;;;;;24.46;39.70;101330.22;5014015;28;20176;-72
2022/08/08 11:59:09;;;;;;;0.00;0.00;;;;;;;24.42;40.27;101324.56;5013626;28;20196;-72
2022/08/08 12:01:35;;;;;;;0.20;0.20;;;;;;;24.60;39.53;101327.56;5014354;28;20245;-72
2022/08/08 12:04:02;;;;;;;0.10;0.10;;;;;;;24.67;39.29;101321.22;5014115;28;20267;-72